sensor_id;sensor_type;location;lat;lon;timestamp;P1;durP1;ratioP1;P2;durP2;ratioP2
46322;SDS011;32044;52.386;13.278;2024-02-21T00:02:09;19.70;;;7.20;;
46322;SDS011;32044;52.386;13.278;2024-02-21T00:04:36;27.92;;;6.53;;
46322;SDS011;32044;52.386;13.278;2024-02-21T00:07:05;28.75;;;6.45;;
46322;SDS011;32044;52.386;13.278;2024-02-21T00:09:32;20.17;;;7.63;;
46322;SDS011;32044;52.386;13.278;2024-02-21T00:12:00;21.65;;;5.65;;
46322;SDS011;32044;52.386;13.278;2024-02-21T00:14:29;19.38;;;6.13;;
46322;SDS011;32044;52.386;13.278;2024-02-21T00:16:57;27.83;;;6.95;;
46322;SDS011;32044;52.386;13.278;2024-02-21T00:19:26;32.85;;;7.15;;
46322;SDS011;32044;52.386;13.278;2024-02-21T00:21:53;30.30;;;6.45;;
46322;SDS011;32044;52.386;13.278;2024-02-21T00:24:21;27.08;;;6.28;;
46322;SDS011;32044;52.386;13.278;2024-02-21T00:26:48;27.70;;;6.82;;
46322;SDS011;32044;52.386;13.278;2024-02-21T00:29:16;20.48;;;6.05;;
46322;SDS011;32044;52.386;13.278;2024-02-21T00:31:43;28.15;;;6.60;;
46322;SDS011;32044;52.386;13.278;2024-02-21T00:34:11;28.52;;;7.68;;
46322;SDS011;32044;52.386;13.278;2024-02-21T00:36:41;32.47;;;6.50;;
46322;SDS011;32044;52.386;13.278;2024-02-21T00:39:08;24.55;;;6.20;;
46322;SDS011;32044;52.386;13.278;2024-02-21T00:41:36;25.52;;;6.75;;
46322;SDS011;32044;52.386;13.278;2024-02-21T00:44:03;26.15;;;6.63;;
46322;SDS011;32044;52.386;13.278;2024-02-21T00:46:32;26.77;;;6.47;;
46322;SDS011;32044;52.386;13.278;2024-02-21T00:49:00;31.77;;;6.50;;
46322;SDS011;32044;52.386;13.278;2024-02-21T00:51:36;24.02;;;5.97;;
46322;SDS011;32044;52.386;13.278;2024-02-21T00:54:05;29.48;;;6.75;;
46322;SDS011;32044;52.386;13.278;2024-02-21T00:56:33;19.45;;;6.72;;
46322;SDS011;32044;52.386;13.278;2024-02-21T00:59:00;26.83;;;6.38;;
46322;SDS011;32044;52.386;13.278;2024-02-21T01:01:28;20.48;;;6.70;;
46322;SDS011;32044;52.386;13.278;2024-02-21T01:03:56;22.40;;;6.63;;
46322;SDS011;32044;52.386;13.278;2024-02-21T01:06:23;28.02;;;6.55;;
46322;SDS011;32044;52.386;13.278;2024-02-21T01:08:51;18.75;;;6.00;;
46322;SDS011;32044;52.386;13.278;2024-02-21T01:11:20;20.17;;;6.53;;
46322;SDS011;32044;52.386;13.278;2024-02-21T01:13:47;27.45;;;6.65;;
46322;SDS011;32044;52.386;13.278;2024-02-21T01:16:15;25.30;;;6.43;;
46322;SDS011;32044;52.386;13.278;2024-02-21T01:18:42;29.55;;;6.40;;
46322;SDS011;32044;52.386;13.278;2024-02-21T01:21:10;19.15;;;6.03;;
46322;SDS011;32044;52.386;13.278;2024-02-21T01:23:38;21.50;;;6.60;;
46322;SDS011;32044;52.386;13.278;2024-02-21T01:26:05;27.27;;;6.72;;
46322;SDS011;32044;52.386;13.278;2024-02-21T01:28:35;18.27;;;6.32;;
46322;SDS011;32044;52.386;13.278;2024-02-21T01:31:03;20.98;;;6.88;;
46322;SDS011;32044;52.386;13.278;2024-02-21T01:33:31;24.45;;;6.43;;
46322;SDS011;32044;52.386;13.278;2024-02-21T01:36:01;20.60;;;6.70;;
46322;SDS011;32044;52.386;13.278;2024-02-21T01:38:29;26.38;;;6.82;;
46322;SDS011;32044;52.386;13.278;2024-02-21T01:40:58;19.77;;;5.70;;
46322;SDS011;32044;52.386;13.278;2024-02-21T01:43:26;32.35;;;6.38;;
46322;SDS011;32044;52.386;13.278;2024-02-21T01:45:55;16.67;;;5.75;;
46322;SDS011;32044;52.386;13.278;2024-02-21T01:48:24;22.80;;;6.35;;
46322;SDS011;32044;52.386;13.278;2024-02-21T01:50:53;19.40;;;5.50;;
46322;SDS011;32044;52.386;13.278;2024-02-21T01:53:22;23.92;;;6.57;;
46322;SDS011;32044;52.386;13.278;2024-02-21T01:55:52;20.83;;;6.35;;
46322;SDS011;32044;52.386;13.278;2024-02-21T01:58:21;21.52;;;6.03;;
46322;SDS011;32044;52.386;13.278;2024-02-21T02:00:49;25.00;;;6.20;;
46322;SDS011;32044;52.386;13.278;2024-02-21T02:03:19;27.13;;;6.03;;
46322;SDS011;32044;52.386;13.278;2024-02-21T02:05:47;24.92;;;6.93;;
46322;SDS011;32044;52.386;13.278;2024-02-21T02:08:15;18.17;;;6.78;;
46322;SDS011;32044;52.386;13.278;2024-02-21T02:10:43;28.17;;;5.40;;
46322;SDS011;32044;52.386;13.278;2024-02-21T02:13:12;30.75;;;6.82;;
46322;SDS011;32044;52.386;13.278;2024-02-21T02:15:40;18.30;;;5.85;;
46322;SDS011;32044;52.386;13.278;2024-02-21T02:18:08;24.58;;;7.07;;
46322;SDS011;32044;52.386;13.278;2024-02-21T02:20:37;24.20;;;6.20;;
46322;SDS011;32044;52.386;13.278;2024-02-21T02:23:07;18.48;;;6.30;;
46322;SDS011;32044;52.386;13.278;2024-02-21T02:25:36;22.80;;;6.00;;
46322;SDS011;32044;52.386;13.278;2024-02-21T02:28:05;29.48;;;7.03;;
46322;SDS011;32044;52.386;13.278;2024-02-21T02:30:33;24.55;;;6.60;;
46322;SDS011;32044;52.386;13.278;2024-02-21T02:33:02;20.55;;;5.57;;
46322;SDS011;32044;52.386;13.278;2024-02-21T02:35:30;24.90;;;6.00;;
46322;SDS011;32044;52.386;13.278;2024-02-21T02:37:58;19.58;;;6.28;;
46322;SDS011;32044;52.386;13.278;2024-02-21T02:40:26;25.17;;;6.85;;
46322;SDS011;32044;52.386;13.278;2024-02-21T02:42:55;18.10;;;6.53;;
46322;SDS011;32044;52.386;13.278;2024-02-21T02:45:22;23.17;;;7.13;;
46322;SDS011;32044;52.386;13.278;2024-02-21T02:47:52;21.40;;;6.50;;
46322;SDS011;32044;52.386;13.278;2024-02-21T02:50:21;19.13;;;6.45;;
46322;SDS011;32044;52.386;13.278;2024-02-21T02:52:49;22.67;;;6.68;;
46322;SDS011;32044;52.386;13.278;2024-02-21T02:55:17;18.98;;;6.32;;
46322;SDS011;32044;52.386;13.278;2024-02-21T02:57:44;20.20;;;6.40;;
46322;SDS011;32044;52.386;13.278;2024-02-21T03:00:14;24.65;;;6.40;;
46322;SDS011;32044;52.386;13.278;2024-02-21T03:02:42;27.70;;;6.70;;
46322;SDS011;32044;52.386;13.278;2024-02-21T03:05:11;17.50;;;6.80;;
46322;SDS011;32044;52.386;13.278;2024-02-21T03:07:40;26.95;;;6.85;;
46322;SDS011;32044;52.386;13.278;2024-02-21T03:10:08;25.33;;;7.00;;
46322;SDS011;32044;52.386;13.278;2024-02-21T03:12:36;20.17;;;6.72;;
46322;SDS011;32044;52.386;13.278;2024-02-21T03:15:05;25.25;;;7.68;;
46322;SDS011;32044;52.386;13.278;2024-02-21T03:17:34;19.85;;;6.70;;
46322;SDS011;32044;52.386;13.278;2024-02-21T03:20:02;26.80;;;6.63;;
46322;SDS011;32044;52.386;13.278;2024-02-21T03:22:32;23.73;;;6.82;;
46322;SDS011;32044;52.386;13.278;2024-02-21T03:24:59;22.67;;;7.25;;
46322;SDS011;32044;52.386;13.278;2024-02-21T03:27:27;25.63;;;7.47;;
46322;SDS011;32044;52.386;13.278;2024-02-21T03:29:54;28.42;;;7.97;;
46322;SDS011;32044;52.386;13.278;2024-02-21T03:32:22;23.65;;;7.68;;
46322;SDS011;32044;52.386;13.278;2024-02-21T03:34:51;26.75;;;7.55;;
46322;SDS011;32044;52.386;13.278;2024-02-21T03:37:18;27.20;;;7.28;;
46322;SDS011;32044;52.386;13.278;2024-02-21T03:39:46;26.73;;;7.35;;
46322;SDS011;32044;52.386;13.278;2024-02-21T03:42:13;21.80;;;6.70;;
46322;SDS011;32044;52.386;13.278;2024-02-21T03:44:41;21.38;;;6.75;;
46322;SDS011;32044;52.386;13.278;2024-02-21T03:47:08;30.75;;;8.15;;
46322;SDS011;32044;52.386;13.278;2024-02-21T03:49:38;31.67;;;7.82;;
46322;SDS011;32044;52.386;13.278;2024-02-21T03:52:07;27.55;;;8.20;;
46322;SDS011;32044;52.386;13.278;2024-02-21T03:54:35;19.98;;;8.77;;
46322;SDS011;32044;52.386;13.278;2024-02-21T03:57:04;24.08;;;8.32;;
46322;SDS011;32044;52.386;13.278;2024-02-21T03:59:32;33.67;;;7.93;;
46322;SDS011;32044;52.386;13.278;2024-02-21T04:02:01;22.27;;;7.88;;
46322;SDS011;32044;52.386;13.278;2024-02-21T04:04:30;30.35;;;7.88;;
46322;SDS011;32044;52.386;13.278;2024-02-21T04:06:57;31.98;;;9.57;;
46322;SDS011;32044;52.386;13.278;2024-02-21T04:09:26;29.98;;;9.13;;
46322;SDS011;32044;52.386;13.278;2024-02-21T04:11:54;27.25;;;7.75;;
46322;SDS011;32044;52.386;13.278;2024-02-21T04:14:21;34.58;;;9.23;;
46322;SDS011;32044;52.386;13.278;2024-02-21T04:16:49;34.15;;;9.82;;
46322;SDS011;32044;52.386;13.278;2024-02-21T04:19:16;21.27;;;8.13;;
46322;SDS011;32044;52.386;13.278;2024-02-21T04:21:44;28.48;;;8.55;;
46322;SDS011;32044;52.386;13.278;2024-02-21T04:24:12;30.17;;;9.20;;
46322;SDS011;32044;52.386;13.278;2024-02-21T04:26:40;28.08;;;8.50;;
46322;SDS011;32044;52.386;13.278;2024-02-21T04:29:08;27.52;;;8.15;;
46322;SDS011;32044;52.386;13.278;2024-02-21T04:31:36;25.85;;;8.73;;
46322;SDS011;32044;52.386;13.278;2024-02-21T04:34:03;26.30;;;8.68;;
46322;SDS011;32044;52.386;13.278;2024-02-21T04:36:33;30.85;;;8.95;;
46322;SDS011;32044;52.386;13.278;2024-02-21T04:39:00;23.10;;;8.18;;
46322;SDS011;32044;52.386;13.278;2024-02-21T04:41:28;26.92;;;9.52;;
46322;SDS011;32044;52.386;13.278;2024-02-21T04:43:57;34.78;;;9.63;;
46322;SDS011;32044;52.386;13.278;2024-02-21T04:46:24;26.42;;;9.25;;
46322;SDS011;32044;52.386;13.278;2024-02-21T04:48:52;29.33;;;9.93;;
46322;SDS011;32044;52.386;13.278;2024-02-21T04:51:19;30.55;;;9.50;;
46322;SDS011;32044;52.386;13.278;2024-02-21T04:53:47;29.25;;;9.02;;
46322;SDS011;32044;52.386;13.278;2024-02-21T04:56:14;26.50;;;8.45;;
46322;SDS011;32044;52.386;13.278;2024-02-21T04:58:42;33.78;;;9.63;;
46322;SDS011;32044;52.386;13.278;2024-02-21T05:01:10;22.38;;;8.63;;
46322;SDS011;32044;52.386;13.278;2024-02-21T05:03:38;30.98;;;8.95;;
46322;SDS011;32044;52.386;13.278;2024-02-21T05:06:06;31.25;;;8.93;;
46322;SDS011;32044;52.386;13.278;2024-02-21T05:08:34;27.58;;;8.60;;
46322;SDS011;32044;52.386;13.278;2024-02-21T05:11:01;33.33;;;10.15;;
46322;SDS011;32044;52.386;13.278;2024-02-21T05:13:29;33.47;;;9.57;;
46322;SDS011;32044;52.386;13.278;2024-02-21T05:15:57;32.42;;;9.77;;
46322;SDS011;32044;52.386;13.278;2024-02-21T05:18:28;21.40;;;8.50;;
46322;SDS011;32044;52.386;13.278;2024-02-21T05:20:56;23.45;;;9.50;;
46322;SDS011;32044;52.386;13.278;2024-02-21T05:23:24;26.33;;;8.45;;
46322;SDS011;32044;52.386;13.278;2024-02-21T05:25:51;21.38;;;8.93;;
46322;SDS011;32044;52.386;13.278;2024-02-21T05:28:19;27.42;;;8.85;;
46322;SDS011;32044;52.386;13.278;2024-02-21T05:30:46;32.90;;;9.30;;
46322;SDS011;32044;52.386;13.278;2024-02-21T05:33:14;31.58;;;9.40;;
46322;SDS011;32044;52.386;13.278;2024-02-21T05:35:49;24.92;;;8.30;;
46322;SDS011;32044;52.386;13.278;2024-02-21T05:38:17;36.28;;;9.52;;
46322;SDS011;32044;52.386;13.278;2024-02-21T05:40:44;27.65;;;9.18;;
46322;SDS011;32044;52.386;13.278;2024-02-21T05:43:13;26.55;;;8.30;;
46322;SDS011;32044;52.386;13.278;2024-02-21T05:45:40;24.23;;;8.63;;
46322;SDS011;32044;52.386;13.278;2024-02-21T05:48:08;27.23;;;9.23;;
46322;SDS011;32044;52.386;13.278;2024-02-21T05:50:36;32.35;;;9.77;;
46322;SDS011;32044;52.386;13.278;2024-02-21T05:53:04;30.60;;;8.98;;
46322;SDS011;32044;52.386;13.278;2024-02-21T05:55:32;25.83;;;9.05;;
46322;SDS011;32044;52.386;13.278;2024-02-21T05:58:00;22.35;;;8.52;;
46322;SDS011;32044;52.386;13.278;2024-02-21T06:00:28;24.85;;;9.15;;
46322;SDS011;32044;52.386;13.278;2024-02-21T06:02:56;22.08;;;9.13;;
46322;SDS011;32044;52.386;13.278;2024-02-21T06:05:23;24.73;;;9.50;;
46322;SDS011;32044;52.386;13.278;2024-02-21T06:07:51;29.90;;;9.75;;
46322;SDS011;32044;52.386;13.278;2024-02-21T06:10:20;27.10;;;10.38;;
46322;SDS011;32044;52.386;13.278;2024-02-21T06:12:47;28.92;;;8.90;;
46322;SDS011;32044;52.386;13.278;2024-02-21T06:15:15;27.73;;;9.60;;
46322;SDS011;32044;52.386;13.278;2024-02-21T06:17:43;31.10;;;9.60;;
46322;SDS011;32044;52.386;13.278;2024-02-21T06:20:10;24.42;;;9.30;;
46322;SDS011;32044;52.386;13.278;2024-02-21T06:22:38;29.10;;;9.32;;
46322;SDS011;32044;52.386;13.278;2024-02-21T06:25:06;28.15;;;9.50;;
46322;SDS011;32044;52.386;13.278;2024-02-21T06:27:36;25.77;;;9.45;;
46322;SDS011;32044;52.386;13.278;2024-02-21T06:30:03;31.38;;;9.77;;
46322;SDS011;32044;52.386;13.278;2024-02-21T06:32:32;25.73;;;9.23;;
46322;SDS011;32044;52.386;13.278;2024-02-21T06:34:59;26.95;;;9.65;;
46322;SDS011;32044;52.386;13.278;2024-02-21T06:37:28;24.73;;;8.82;;
46322;SDS011;32044;52.386;13.278;2024-02-21T06:39:56;25.63;;;10.15;;
46322;SDS011;32044;52.386;13.278;2024-02-21T06:42:24;27.83;;;8.80;;
46322;SDS011;32044;52.386;13.278;2024-02-21T06:44:53;26.60;;;9.45;;
46322;SDS011;32044;52.386;13.278;2024-02-21T06:47:22;22.35;;;9.80;;
46322;SDS011;32044;52.386;13.278;2024-02-21T06:49:49;25.15;;;9.32;;
46322;SDS011;32044;52.386;13.278;2024-02-21T06:52:18;21.52;;;9.43;;
46322;SDS011;32044;52.386;13.278;2024-02-21T06:54:46;26.48;;;9.57;;
46322;SDS011;32044;52.386;13.278;2024-02-21T06:57:14;33.33;;;9.05;;
46322;SDS011;32044;52.386;13.278;2024-02-21T06:59:42;26.55;;;8.55;;
46322;SDS011;32044;52.386;13.278;2024-02-21T07:02:11;20.25;;;8.88;;
46322;SDS011;32044;52.386;13.278;2024-02-21T07:04:38;27.02;;;9.02;;
46322;SDS011;32044;52.386;13.278;2024-02-21T07:07:06;19.45;;;8.50;;
46322;SDS011;32044;52.386;13.278;2024-02-21T07:09:34;28.08;;;8.90;;
46322;SDS011;32044;52.386;13.278;2024-02-21T07:12:02;26.88;;;8.98;;
46322;SDS011;32044;52.386;13.278;2024-02-21T07:14:31;26.90;;;9.00;;
46322;SDS011;32044;52.386;13.278;2024-02-21T07:16:59;30.83;;;10.18;;
46322;SDS011;32044;52.386;13.278;2024-02-21T07:19:28;17.77;;;7.80;;
46322;SDS011;32044;52.386;13.278;2024-02-21T07:21:56;19.48;;;7.40;;
46322;SDS011;32044;52.386;13.278;2024-02-21T07:24:24;25.88;;;8.02;;
46322;SDS011;32044;52.386;13.278;2024-02-21T07:26:51;28.92;;;8.00;;
46322;SDS011;32044;52.386;13.278;2024-02-21T07:29:19;23.58;;;8.38;;
46322;SDS011;32044;52.386;13.278;2024-02-21T07:31:47;19.15;;;7.60;;
46322;SDS011;32044;52.386;13.278;2024-02-21T07:34:17;22.15;;;8.02;;
46322;SDS011;32044;52.386;13.278;2024-02-21T07:36:46;24.55;;;8.38;;
46322;SDS011;32044;52.386;13.278;2024-02-21T07:39:14;25.80;;;9.05;;
46322;SDS011;32044;52.386;13.278;2024-02-21T07:41:41;25.80;;;8.52;;
46322;SDS011;32044;52.386;13.278;2024-02-21T07:44:11;20.05;;;7.75;;
46322;SDS011;32044;52.386;13.278;2024-02-21T07:46:38;23.20;;;7.72;;
46322;SDS011;32044;52.386;13.278;2024-02-21T07:49:06;20.17;;;7.90;;
46322;SDS011;32044;52.386;13.278;2024-02-21T07:51:34;26.60;;;7.82;;
46322;SDS011;32044;52.386;13.278;2024-02-21T07:54:04;26.58;;;8.77;;
46322;SDS011;32044;52.386;13.278;2024-02-21T07:56:31;24.90;;;8.60;;
46322;SDS011;32044;52.386;13.278;2024-02-21T07:58:58;27.75;;;7.95;;
46322;SDS011;32044;52.386;13.278;2024-02-21T08:01:26;21.33;;;7.97;;
46322;SDS011;32044;52.386;13.278;2024-02-21T08:03:54;20.48;;;8.80;;
46322;SDS011;32044;52.386;13.278;2024-02-21T08:06:21;26.65;;;8.40;;
46322;SDS011;32044;52.386;13.278;2024-02-21T08:08:49;25.23;;;8.95;;
46322;SDS011;32044;52.386;13.278;2024-02-21T08:11:21;15.43;;;7.30;;
46322;SDS011;32044;52.386;13.278;2024-02-21T08:13:50;22.75;;;9.20;;
46322;SDS011;32044;52.386;13.278;2024-02-21T08:16:17;25.40;;;8.90;;
46322;SDS011;32044;52.386;13.278;2024-02-21T08:18:45;26.23;;;8.73;;
46322;SDS011;32044;52.386;13.278;2024-02-21T08:21:12;23.20;;;8.27;;
46322;SDS011;32044;52.386;13.278;2024-02-21T08:23:40;25.67;;;9.70;;
46322;SDS011;32044;52.386;13.278;2024-02-21T08:26:08;26.17;;;9.60;;
46322;SDS011;32044;52.386;13.278;2024-02-21T08:28:37;23.05;;;9.70;;
46322;SDS011;32044;52.386;13.278;2024-02-21T08:31:04;25.38;;;9.27;;
46322;SDS011;32044;52.386;13.278;2024-02-21T08:33:32;21.58;;;9.00;;
46322;SDS011;32044;52.386;13.278;2024-02-21T08:36:00;21.90;;;9.23;;
46322;SDS011;32044;52.386;13.278;2024-02-21T08:38:27;26.65;;;9.35;;
46322;SDS011;32044;52.386;13.278;2024-02-21T08:40:54;27.20;;;8.80;;
46322;SDS011;32044;52.386;13.278;2024-02-21T08:43:22;23.15;;;9.60;;
46322;SDS011;32044;52.386;13.278;2024-02-21T08:45:51;22.98;;;10.43;;
46322;SDS011;32044;52.386;13.278;2024-02-21T08:48:28;23.05;;;9.20;;
46322;SDS011;32044;52.386;13.278;2024-02-21T08:50:55;27.45;;;9.95;;
46322;SDS011;32044;52.386;13.278;2024-02-21T08:53:23;26.73;;;10.45;;
46322;SDS011;32044;52.386;13.278;2024-02-21T08:55:50;30.35;;;9.75;;
46322;SDS011;32044;52.386;13.278;2024-02-21T08:58:18;25.55;;;9.85;;
46322;SDS011;32044;52.386;13.278;2024-02-21T09:00:48;23.40;;;9.32;;
46322;SDS011;32044;52.386;13.278;2024-02-21T09:03:16;23.40;;;9.32;;
46322;SDS011;32044;52.386;13.278;2024-02-21T09:05:46;23.55;;;9.63;;
46322;SDS011;32044;52.386;13.278;2024-02-21T09:08:13;21.60;;;9.68;;
46322;SDS011;32044;52.386;13.278;2024-02-21T09:10:41;24.02;;;9.13;;
46322;SDS011;32044;52.386;13.278;2024-02-21T09:13:09;22.88;;;9.85;;
46322;SDS011;32044;52.386;13.278;2024-02-21T09:15:36;25.65;;;9.88;;
46322;SDS011;32044;52.386;13.278;2024-02-21T09:18:04;25.23;;;10.45;;
46322;SDS011;32044;52.386;13.278;2024-02-21T09:20:33;26.63;;;10.27;;
46322;SDS011;32044;52.386;13.278;2024-02-21T09:23:00;20.35;;;10.13;;
46322;SDS011;32044;52.386;13.278;2024-02-21T09:25:28;24.25;;;10.45;;
46322;SDS011;32044;52.386;13.278;2024-02-21T09:27:56;21.55;;;9.27;;
46322;SDS011;32044;52.386;13.278;2024-02-21T09:30:24;24.52;;;9.60;;
46322;SDS011;32044;52.386;13.278;2024-02-21T09:32:52;24.70;;;10.23;;
46322;SDS011;32044;52.386;13.278;2024-02-21T09:35:20;21.45;;;10.55;;
46322;SDS011;32044;52.386;13.278;2024-02-21T09:37:50;27.90;;;10.65;;
46322;SDS011;32044;52.386;13.278;2024-02-21T09:40:18;22.88;;;10.30;;
46322;SDS011;32044;52.386;13.278;2024-02-21T09:42:46;24.58;;;9.95;;
46322;SDS011;32044;52.386;13.278;2024-02-21T09:45:15;21.52;;;9.90;;
46322;SDS011;32044;52.386;13.278;2024-02-21T09:47:50;25.42;;;10.10;;
46322;SDS011;32044;52.386;13.278;2024-02-21T09:50:24;26.20;;;9.35;;
46322;SDS011;32044;52.386;13.278;2024-02-21T09:52:53;19.77;;;10.35;;
46322;SDS011;32044;52.386;13.278;2024-02-21T09:55:21;24.20;;;9.88;;
46322;SDS011;32044;52.386;13.278;2024-02-21T09:57:51;19.73;;;9.93;;
46322;SDS011;32044;52.386;13.278;2024-02-21T10:00:19;21.40;;;10.18;;
46322;SDS011;32044;52.386;13.278;2024-02-21T10:02:48;20.40;;;9.90;;
46322;SDS011;32044;52.386;13.278;2024-02-21T10:05:16;21.42;;;9.90;;
46322;SDS011;32044;52.386;13.278;2024-02-21T10:07:44;16.42;;;9.15;;
46322;SDS011;32044;52.386;13.278;2024-02-21T10:10:13;20.48;;;9.13;;
46322;SDS011;32044;52.386;13.278;2024-02-21T10:12:48;28.73;;;10.75;;
46322;SDS011;32044;52.386;13.278;2024-02-21T10:15:19;22.95;;;9.50;;
46322;SDS011;32044;52.386;13.278;2024-02-21T10:17:47;19.63;;;9.32;;
46322;SDS011;32044;52.386;13.278;2024-02-21T10:20:15;25.63;;;10.05;;
46322;SDS011;32044;52.386;13.278;2024-02-21T10:22:42;16.73;;;10.13;;
46322;SDS011;32044;52.386;13.278;2024-02-21T10:25:10;18.20;;;8.70;;
46322;SDS011;32044;52.386;13.278;2024-02-21T10:27:40;18.50;;;8.70;;
46322;SDS011;32044;52.386;13.278;2024-02-21T10:30:12;19.98;;;8.77;;
46322;SDS011;32044;52.386;13.278;2024-02-21T10:32:48;20.23;;;9.25;;
46322;SDS011;32044;52.386;13.278;2024-02-21T10:35:25;22.38;;;9.10;;
46322;SDS011;32044;52.386;13.278;2024-02-21T10:37:54;25.02;;;9.07;;
46322;SDS011;32044;52.386;13.278;2024-02-21T10:40:23;15.25;;;8.77;;
46322;SDS011;32044;52.386;13.278;2024-02-21T10:42:55;16.88;;;8.70;;
46322;SDS011;32044;52.386;13.278;2024-02-21T10:45:29;17.98;;;8.70;;
46322;SDS011;32044;52.386;13.278;2024-02-21T10:48:01;18.77;;;8.70;;
46322;SDS011;32044;52.386;13.278;2024-02-21T10:50:36;18.75;;;8.25;;
46322;SDS011;32044;52.386;13.278;2024-02-21T10:53:09;18.45;;;9.07;;
46322;SDS011;32044;52.386;13.278;2024-02-21T10:55:46;21.85;;;9.05;;
46322;SDS011;32044;52.386;13.278;2024-02-21T10:58:18;22.00;;;8.90;;
46322;SDS011;32044;52.386;13.278;2024-02-21T11:00:46;18.55;;;8.32;;
46322;SDS011;32044;52.386;13.278;2024-02-21T11:03:14;19.33;;;8.32;;
46322;SDS011;32044;52.386;13.278;2024-02-21T11:05:42;17.50;;;8.52;;
46322;SDS011;32044;52.386;13.278;2024-02-21T11:08:11;14.50;;;9.20;;
46322;SDS011;32044;52.386;13.278;2024-02-21T11:10:39;18.45;;;8.13;;
46322;SDS011;32044;52.386;13.278;2024-02-21T11:13:07;16.25;;;9.43;;
46322;SDS011;32044;52.386;13.278;2024-02-21T11:15:36;16.23;;;7.93;;
46322;SDS011;32044;52.386;13.278;2024-02-21T11:18:04;15.45;;;8.40;;
46322;SDS011;32044;52.386;13.278;2024-02-21T11:20:32;19.83;;;9.25;;
46322;SDS011;32044;52.386;13.278;2024-02-21T11:23:01;15.02;;;7.88;;
46322;SDS011;32044;52.386;13.278;2024-02-21T11:25:29;13.68;;;6.65;;
46322;SDS011;32044;52.386;13.278;2024-02-21T11:27:59;12.65;;;6.75;;
46322;SDS011;32044;52.386;13.278;2024-02-21T11:30:27;15.80;;;7.25;;
46322;SDS011;32044;52.386;13.278;2024-02-21T11:33:01;13.32;;;6.45;;
46322;SDS011;32044;52.386;13.278;2024-02-21T11:35:36;13.27;;;6.82;;
46322;SDS011;32044;52.386;13.278;2024-02-21T11:38:08;15.90;;;7.40;;
46322;SDS011;32044;52.386;13.278;2024-02-21T11:40:38;11.95;;;6.53;;
46322;SDS011;32044;52.386;13.278;2024-02-21T11:43:07;9.75;;;5.82;;
46322;SDS011;32044;52.386;13.278;2024-02-21T11:45:35;11.00;;;5.90;;
46322;SDS011;32044;52.386;13.278;2024-02-21T11:48:06;14.07;;;5.93;;
46322;SDS011;32044;52.386;13.278;2024-02-21T11:50:34;13.45;;;5.95;;
46322;SDS011;32044;52.386;13.278;2024-02-21T11:53:02;14.57;;;6.22;;
46322;SDS011;32044;52.386;13.278;2024-02-21T11:55:30;11.50;;;5.45;;
46322;SDS011;32044;52.386;13.278;2024-02-21T11:57:58;11.40;;;5.57;;
46322;SDS011;32044;52.386;13.278;2024-02-21T12:00:26;14.75;;;4.97;;
46322;SDS011;32044;52.386;13.278;2024-02-21T12:02:57;13.23;;;5.47;;
46322;SDS011;32044;52.386;13.278;2024-02-21T12:05:30;11.73;;;5.30;;
46322;SDS011;32044;52.386;13.278;2024-02-21T12:07:58;9.85;;;4.75;;
46322;SDS011;32044;52.386;13.278;2024-02-21T12:10:26;9.77;;;5.10;;
46322;SDS011;32044;52.386;13.278;2024-02-21T12:13:18;10.68;;;4.63;;
46322;SDS011;32044;52.386;13.278;2024-02-21T12:16:15;11.52;;;4.57;;
46322;SDS011;32044;52.386;13.278;2024-02-21T12:18:44;10.63;;;5.13;;
46322;SDS011;32044;52.386;13.278;2024-02-21T12:21:13;8.40;;;4.20;;
46322;SDS011;32044;52.386;13.278;2024-02-21T12:23:43;9.13;;;3.53;;
46322;SDS011;32044;52.386;13.278;2024-02-21T12:26:13;9.00;;;4.90;;
46322;SDS011;32044;52.386;13.278;2024-02-21T12:28:41;15.73;;;5.85;;
46322;SDS011;32044;52.386;13.278;2024-02-21T12:31:08;16.70;;;5.68;;
46322;SDS011;32044;52.386;13.278;2024-02-21T12:33:36;10.10;;;4.95;;
46322;SDS011;32044;52.386;13.278;2024-02-21T12:36:04;12.48;;;4.82;;
46322;SDS011;32044;52.386;13.278;2024-02-21T12:38:33;10.80;;;5.15;;
46322;SDS011;32044;52.386;13.278;2024-02-21T12:41:01;13.10;;;5.72;;
46322;SDS011;32044;52.386;13.278;2024-02-21T12:43:29;12.65;;;5.72;;
46322;SDS011;32044;52.386;13.278;2024-02-21T12:45:57;17.25;;;5.63;;
46322;SDS011;32044;52.386;13.278;2024-02-21T12:48:24;15.45;;;5.95;;
46322;SDS011;32044;52.386;13.278;2024-02-21T12:50:52;11.55;;;5.95;;
46322;SDS011;32044;52.386;13.278;2024-02-21T12:53:20;11.38;;;5.68;;
46322;SDS011;32044;52.386;13.278;2024-02-21T12:55:59;13.48;;;5.70;;
46322;SDS011;32044;52.386;13.278;2024-02-21T12:58:27;12.50;;;6.20;;
46322;SDS011;32044;52.386;13.278;2024-02-21T13:00:58;10.32;;;5.55;;
46322;SDS011;32044;52.386;13.278;2024-02-21T13:03:26;14.10;;;5.47;;
46322;SDS011;32044;52.386;13.278;2024-02-21T13:05:58;17.55;;;5.38;;
46322;SDS011;32044;52.386;13.278;2024-02-21T13:08:26;12.82;;;5.43;;
46322;SDS011;32044;52.386;13.278;2024-02-21T13:10:54;13.45;;;6.13;;
46322;SDS011;32044;52.386;13.278;2024-02-21T13:13:23;12.60;;;5.75;;
46322;SDS011;32044;52.386;13.278;2024-02-21T13:15:50;16.75;;;5.40;;
46322;SDS011;32044;52.386;13.278;2024-02-21T13:18:18;9.77;;;5.32;;
46322;SDS011;32044;52.386;13.278;2024-02-21T13:20:46;11.32;;;5.10;;
46322;SDS011;32044;52.386;13.278;2024-02-21T13:23:15;14.73;;;5.07;;
46322;SDS011;32044;52.386;13.278;2024-02-21T13:25:42;12.63;;;5.05;;
46322;SDS011;32044;52.386;13.278;2024-02-21T13:28:10;7.80;;;3.88;;
46322;SDS011;32044;52.386;13.278;2024-02-21T13:30:40;11.30;;;4.45;;
46322;SDS011;32044;52.386;13.278;2024-02-21T13:33:08;14.15;;;5.00;;
46322;SDS011;32044;52.386;13.278;2024-02-21T13:35:36;9.50;;;4.30;;
46322;SDS011;32044;52.386;13.278;2024-02-21T13:38:05;12.48;;;4.82;;
46322;SDS011;32044;52.386;13.278;2024-02-21T13:40:33;12.98;;;5.03;;
46322;SDS011;32044;52.386;13.278;2024-02-21T13:43:00;11.85;;;5.40;;
46322;SDS011;32044;52.386;13.278;2024-02-21T13:45:28;11.63;;;5.82;;
46322;SDS011;32044;52.386;13.278;2024-02-21T13:47:58;9.40;;;4.53;;
46322;SDS011;32044;52.386;13.278;2024-02-21T13:50:29;13.65;;;5.43;;
46322;SDS011;32044;52.386;13.278;2024-02-21T13:52:57;9.73;;;5.07;;
46322;SDS011;32044;52.386;13.278;2024-02-21T13:55:25;13.60;;;4.88;;
46322;SDS011;32044;52.386;13.278;2024-02-21T13:57:53;12.55;;;4.88;;
46322;SDS011;32044;52.386;13.278;2024-02-21T14:00:20;12.13;;;4.68;;
46322;SDS011;32044;52.386;13.278;2024-02-21T14:02:48;11.82;;;5.18;;
46322;SDS011;32044;52.386;13.278;2024-02-21T14:05:17;10.57;;;4.53;;
46322;SDS011;32044;52.386;13.278;2024-02-21T14:07:44;14.57;;;5.28;;
46322;SDS011;32044;52.386;13.278;2024-02-21T14:10:12;12.93;;;6.13;;
46322;SDS011;32044;52.386;13.278;2024-02-21T14:12:39;15.20;;;5.57;;
46322;SDS011;32044;52.386;13.278;2024-02-21T14:15:07;11.07;;;5.20;;
46322;SDS011;32044;52.386;13.278;2024-02-21T14:17:36;13.65;;;5.13;;
46322;SDS011;32044;52.386;13.278;2024-02-21T14:20:06;10.15;;;4.50;;
46322;SDS011;32044;52.386;13.278;2024-02-21T14:22:35;12.93;;;4.97;;
46322;SDS011;32044;52.386;13.278;2024-02-21T14:25:04;12.88;;;4.03;;
46322;SDS011;32044;52.386;13.278;2024-02-21T14:27:31;10.63;;;4.15;;
46322;SDS011;32044;52.386;13.278;2024-02-21T14:29:59;8.38;;;4.22;;